sensor_id;sensor_type;location;lat;lon;timestamp;P1;durP1;ratioP1;P2;durP2;ratioP2
7515;SDS011;3799;47.184;8.538;2022-12-20T00:01:42;3.25;;;1.42;;
7515;SDS011;3799;47.184;8.538;2022-12-20T00:04:09;2.30;;;0.70;;
7515;SDS011;3799;47.184;8.538;2022-12-20T00:06:36;2.05;;;0.88;;
7515;SDS011;3799;47.184;8.538;2022-12-20T00:09:05;2.95;;;1.33;;
7515;SDS011;3799;47.184;8.538;2022-12-20T00:11:33;5.85;;;1.08;;
7515;SDS011;3799;47.184;8.538;2022-12-20T00:14:03;3.85;;;1.27;;
7515;SDS011;3799;47.184;8.538;2022-12-20T00:16:30;3.22;;;1.10;;
7515;SDS011;3799;47.184;8.538;2022-12-20T00:18:57;4.85;;;2.10;;
7515;SDS011;3799;47.184;8.538;2022-12-20T00:21:27;4.30;;;1.83;;
7515;SDS011;3799;47.184;8.538;2022-12-20T00:23:56;4.32;;;1.60;;
7515;SDS011;3799;47.184;8.538;2022-12-20T00:26:25;3.35;;;1.40;;
7515;SDS011;3799;47.184;8.538;2022-12-20T00:28:57;6.15;;;2.63;;
7515;SDS011;3799;47.184;8.538;2022-12-20T00:31:26;7.30;;;3.60;;
7515;SDS011;3799;47.184;8.538;2022-12-20T00:33:54;7.25;;;3.63;;
7515;SDS011;3799;47.184;8.538;2022-12-20T00:36:23;8.65;;;3.78;;
7515;SDS011;3799;47.184;8.538;2022-12-20T00:38:53;6.18;;;2.80;;
7515;SDS011;3799;47.184;8.538;2022-12-20T00:41:26;5.03;;;2.35;;
7515;SDS011;3799;47.184;8.538;2022-12-20T00:43:55;4.22;;;1.83;;
7515;SDS011;3799;47.184;8.538;2022-12-20T00:46:22;3.30;;;1.60;;
7515;SDS011;3799;47.184;8.538;2022-12-20T00:48:50;3.28;;;1.80;;
7515;SDS011;3799;47.184;8.538;2022-12-20T00:51:19;4.15;;;2.00;;
7515;SDS011;3799;47.184;8.538;2022-12-20T00:53:48;3.20;;;1.05;;
7515;SDS011;3799;47.184;8.538;2022-12-20T00:56:15;3.95;;;0.88;;
7515;SDS011;3799;47.184;8.538;2022-12-20T00:58:43;1.35;;;0.55;;
7515;SDS011;3799;47.184;8.538;2022-12-20T01:01:15;2.78;;;0.75;;
7515;SDS011;3799;47.184;8.538;2022-12-20T01:03:53;3.20;;;1.02;;
7515;SDS011;3799;47.184;8.538;2022-12-20T01:06:21;3.58;;;1.23;;
7515;SDS011;3799;47.184;8.538;2022-12-20T01:08:51;3.35;;;1.25;;
7515;SDS011;3799;47.184;8.538;2022-12-20T01:11:20;6.13;;;2.38;;
7515;SDS011;3799;47.184;8.538;2022-12-20T01:13:50;4.22;;;2.22;;
7515;SDS011;3799;47.184;8.538;2022-12-20T01:18:53;6.00;;;2.10;;
7515;SDS011;3799;47.184;8.538;2022-12-20T01:21:22;3.83;;;1.95;;
7515;SDS011;3799;47.184;8.538;2022-12-20T01:23:51;3.00;;;1.52;;
7515;SDS011;3799;47.184;8.538;2022-12-20T01:26:20;4.40;;;1.75;;
7515;SDS011;3799;47.184;8.538;2022-12-20T01:28:50;4.47;;;2.10;;
7515;SDS011;3799;47.184;8.538;2022-12-20T01:31:20;3.95;;;2.55;;
7515;SDS011;3799;47.184;8.538;2022-12-20T01:33:47;5.47;;;2.40;;
7515;SDS011;3799;47.184;8.538;2022-12-20T01:36:17;5.45;;;2.30;;
7515;SDS011;3799;47.184;8.538;2022-12-20T01:38:58;6.82;;;2.67;;
7515;SDS011;3799;47.184;8.538;2022-12-20T01:41:26;5.78;;;2.35;;
7515;SDS011;3799;47.184;8.538;2022-12-20T01:43:55;6.30;;;2.72;;
7515;SDS011;3799;47.184;8.538;2022-12-20T01:46:27;5.07;;;2.28;;
7515;SDS011;3799;47.184;8.538;2022-12-20T01:51:38;3.35;;;1.60;;
7515;SDS011;3799;47.184;8.538;2022-12-20T01:54:11;3.65;;;1.80;;
7515;SDS011;3799;47.184;8.538;2022-12-20T01:56:42;3.95;;;1.77;;
7515;SDS011;3799;47.184;8.538;2022-12-20T01:59:15;4.93;;;2.13;;
7515;SDS011;3799;47.184;8.538;2022-12-20T02:01:42;5.32;;;2.35;;
7515;SDS011;3799;47.184;8.538;2022-12-20T02:04:21;5.35;;;1.92;;
7515;SDS011;3799;47.184;8.538;2022-12-20T02:06:49;5.50;;;2.05;;
7515;SDS011;3799;47.184;8.538;2022-12-20T02:09:16;8.05;;;2.60;;
7515;SDS011;3799;47.184;8.538;2022-12-20T02:11:56;4.47;;;2.22;;
7515;SDS011;3799;47.184;8.538;2022-12-20T02:17:32;5.63;;;3.13;;
7515;SDS011;3799;47.184;8.538;2022-12-20T02:23:52;4.28;;;1.60;;
7515;SDS011;3799;47.184;8.538;2022-12-20T02:26:35;4.05;;;1.50;;
7515;SDS011;3799;47.184;8.538;2022-12-20T02:32:03;6.78;;;2.95;;
7515;SDS011;3799;47.184;8.538;2022-12-20T02:34:39;7.82;;;2.42;;
7515;SDS011;3799;47.184;8.538;2022-12-20T02:37:08;5.47;;;2.80;;
7515;SDS011;3799;47.184;8.538;2022-12-20T02:39:36;4.60;;;2.60;;
7515;SDS011;3799;47.184;8.538;2022-12-20T02:42:09;2.85;;;1.30;;
7515;SDS011;3799;47.184;8.538;2022-12-20T02:45:21;2.95;;;1.25;;
7515;SDS011;3799;47.184;8.538;2022-12-20T02:50:20;4.57;;;1.50;;
7515;SDS011;3799;47.184;8.538;2022-12-20T02:52:53;4.30;;;1.67;;
7515;SDS011;3799;47.184;8.538;2022-12-20T02:55:23;2.47;;;0.90;;
7515;SDS011;3799;47.184;8.538;2022-12-20T02:58:04;2.50;;;0.88;;
7515;SDS011;3799;47.184;8.538;2022-12-20T03:00:37;2.63;;;1.00;;
7515;SDS011;3799;47.184;8.538;2022-12-20T03:03:07;3.03;;;1.27;;
7515;SDS011;3799;47.184;8.538;2022-12-20T03:05:51;4.07;;;1.27;;
7515;SDS011;3799;47.184;8.538;2022-12-20T03:08:20;2.75;;;1.23;;
7515;SDS011;3799;47.184;8.538;2022-12-20T03:10:48;2.95;;;1.30;;
7515;SDS011;3799;47.184;8.538;2022-12-20T03:13:16;4.40;;;1.42;;
7515;SDS011;3799;47.184;8.538;2022-12-20T03:15:43;2.60;;;1.02;;
7515;SDS011;3799;47.184;8.538;2022-12-20T03:18:11;3.97;;;1.30;;
7515;SDS011;3799;47.184;8.538;2022-12-20T03:20:38;3.40;;;1.10;;
7515;SDS011;3799;47.184;8.538;2022-12-20T03:23:05;3.13;;;1.35;;
7515;SDS011;3799;47.184;8.538;2022-12-20T03:25:32;4.28;;;1.70;;
7515;SDS011;3799;47.184;8.538;2022-12-20T03:27:59;3.92;;;1.83;;
7515;SDS011;3799;47.184;8.538;2022-12-20T03:30:26;6.25;;;2.45;;
7515;SDS011;3799;47.184;8.538;2022-12-20T03:32:53;6.60;;;2.50;;
7515;SDS011;3799;47.184;8.538;2022-12-20T03:35:20;4.03;;;2.10;;
7515;SDS011;3799;47.184;8.538;2022-12-20T03:37:47;5.18;;;2.10;;
7515;SDS011;3799;47.184;8.538;2022-12-20T03:40:14;3.92;;;1.75;;
7515;SDS011;3799;47.184;8.538;2022-12-20T03:42:41;4.55;;;2.20;;
7515;SDS011;3799;47.184;8.538;2022-12-20T03:45:09;4.90;;;2.30;;
7515;SDS011;3799;47.184;8.538;2022-12-20T03:47:36;4.45;;;2.50;;
7515;SDS011;3799;47.184;8.538;2022-12-20T03:50:04;4.22;;;2.28;;
7515;SDS011;3799;47.184;8.538;2022-12-20T03:52:32;5.70;;;2.15;;
7515;SDS011;3799;47.184;8.538;2022-12-20T03:54:59;4.38;;;2.08;;
7515;SDS011;3799;47.184;8.538;2022-12-20T03:57:26;3.65;;;1.30;;
7515;SDS011;3799;47.184;8.538;2022-12-20T03:59:53;4.50;;;1.95;;
7515;SDS011;3799;47.184;8.538;2022-12-20T04:02:20;4.13;;;1.35;;
7515;SDS011;3799;47.184;8.538;2022-12-20T04:04:48;3.30;;;1.08;;
7515;SDS011;3799;47.184;8.538;2022-12-20T04:07:15;1.73;;;0.95;;
7515;SDS011;3799;47.184;8.538;2022-12-20T04:09:42;2.20;;;0.73;;
7515;SDS011;3799;47.184;8.538;2022-12-20T04:12:10;2.90;;;1.33;;
7515;SDS011;3799;47.184;8.538;2022-12-20T04:14:50;2.83;;;1.45;;
7515;SDS011;3799;47.184;8.538;2022-12-20T04:17:17;1.77;;;0.77;;
7515;SDS011;3799;47.184;8.538;2022-12-20T04:19:44;3.30;;;1.45;;
7515;SDS011;3799;47.184;8.538;2022-12-20T04:22:11;4.07;;;0.98;;
7515;SDS011;3799;47.184;8.538;2022-12-20T04:24:38;3.58;;;1.50;;
7515;SDS011;3799;47.184;8.538;2022-12-20T04:27:05;4.45;;;1.48;;
7515;SDS011;3799;47.184;8.538;2022-12-20T04:29:32;2.90;;;1.33;;
7515;SDS011;3799;47.184;8.538;2022-12-20T04:31:59;3.35;;;1.23;;
7515;SDS011;3799;47.184;8.538;2022-12-20T04:34:26;2.55;;;1.00;;
7515;SDS011;3799;47.184;8.538;2022-12-20T04:36:53;2.75;;;0.90;;
7515;SDS011;3799;47.184;8.538;2022-12-20T04:39:20;2.00;;;0.90;;
7515;SDS011;3799;47.184;8.538;2022-12-20T04:41:47;3.15;;;1.38;;
7515;SDS011;3799;47.184;8.538;2022-12-20T04:44:14;2.55;;;1.17;;
7515;SDS011;3799;47.184;8.538;2022-12-20T04:46:41;3.85;;;1.15;;
7515;SDS011;3799;47.184;8.538;2022-12-20T04:49:10;3.42;;;1.00;;
7515;SDS011;3799;47.184;8.538;2022-12-20T04:51:37;2.65;;;1.30;;
7515;SDS011;3799;47.184;8.538;2022-12-20T04:54:04;3.15;;;1.55;;
7515;SDS011;3799;47.184;8.538;2022-12-20T04:56:32;5.78;;;1.95;;
7515;SDS011;3799;47.184;8.538;2022-12-20T04:58:59;4.45;;;1.52;;
7515;SDS011;3799;47.184;8.538;2022-12-20T05:01:27;3.15;;;1.50;;
7515;SDS011;3799;47.184;8.538;2022-12-20T05:03:55;4.50;;;1.95;;
7515;SDS011;3799;47.184;8.538;2022-12-20T05:06:22;4.75;;;2.05;;
7515;SDS011;3799;47.184;8.538;2022-12-20T05:08:49;3.33;;;1.58;;
7515;SDS011;3799;47.184;8.538;2022-12-20T05:11:16;5.00;;;2.38;;
7515;SDS011;3799;47.184;8.538;2022-12-20T05:13:43;3.80;;;1.58;;
7515;SDS011;3799;47.184;8.538;2022-12-20T05:16:17;2.85;;;1.42;;
7515;SDS011;3799;47.184;8.538;2022-12-20T05:18:45;4.60;;;1.58;;
7515;SDS011;3799;47.184;8.538;2022-12-20T05:21:15;3.85;;;1.23;;
7515;SDS011;3799;47.184;8.538;2022-12-20T05:24:00;3.05;;;1.20;;
7515;SDS011;3799;47.184;8.538;2022-12-20T05:26:49;2.50;;;1.10;;
7515;SDS011;3799;47.184;8.538;2022-12-20T05:29:16;2.53;;;0.82;;
7515;SDS011;3799;47.184;8.538;2022-12-20T05:31:43;2.13;;;0.80;;
7515;SDS011;3799;47.184;8.538;2022-12-20T05:34:11;2.03;;;0.82;;
7515;SDS011;3799;47.184;8.538;2022-12-20T05:36:38;2.45;;;1.15;;
7515;SDS011;3799;47.184;8.538;2022-12-20T05:39:05;2.90;;;0.90;;
7515;SDS011;3799;47.184;8.538;2022-12-20T05:41:31;2.72;;;1.42;;
7515;SDS011;3799;47.184;8.538;2022-12-20T05:44:00;5.43;;;2.90;;
7515;SDS011;3799;47.184;8.538;2022-12-20T05:46:27;5.30;;;2.28;;
7515;SDS011;3799;47.184;8.538;2022-12-20T05:48:55;4.28;;;2.35;;
7515;SDS011;3799;47.184;8.538;2022-12-20T05:51:22;4.40;;;2.40;;
7515;SDS011;3799;47.184;8.538;2022-12-20T05:53:49;4.88;;;1.75;;
7515;SDS011;3799;47.184;8.538;2022-12-20T05:56:17;4.30;;;1.80;;
7515;SDS011;3799;47.184;8.538;2022-12-20T05:58:58;4.80;;;2.13;;
7515;SDS011;3799;47.184;8.538;2022-12-20T06:01:25;2.95;;;1.75;;
7515;SDS011;3799;47.184;8.538;2022-12-20T06:03:52;4.75;;;1.73;;
7515;SDS011;3799;47.184;8.538;2022-12-20T06:06:19;3.28;;;1.25;;
7515;SDS011;3799;47.184;8.538;2022-12-20T06:08:45;4.38;;;1.73;;
7515;SDS011;3799;47.184;8.538;2022-12-20T06:11:14;3.28;;;1.88;;
7515;SDS011;3799;47.184;8.538;2022-12-20T06:13:40;3.58;;;1.60;;
7515;SDS011;3799;47.184;8.538;2022-12-20T06:16:07;3.85;;;1.45;;
7515;SDS011;3799;47.184;8.538;2022-12-20T06:18:34;3.80;;;2.00;;
7515;SDS011;3799;47.184;8.538;2022-12-20T06:21:02;4.22;;;1.88;;
7515;SDS011;3799;47.184;8.538;2022-12-20T06:23:29;5.20;;;1.63;;
7515;SDS011;3799;47.184;8.538;2022-12-20T06:25:56;4.50;;;1.85;;
7515;SDS011;3799;47.184;8.538;2022-12-20T06:28:23;3.80;;;1.90;;
7515;SDS011;3799;47.184;8.538;2022-12-20T06:30:54;4.28;;;2.03;;
7515;SDS011;3799;47.184;8.538;2022-12-20T06:33:22;4.45;;;1.88;;
7515;SDS011;3799;47.184;8.538;2022-12-20T06:35:49;5.88;;;2.65;;
7515;SDS011;3799;47.184;8.538;2022-12-20T06:38:16;7.38;;;3.08;;
7515;SDS011;3799;47.184;8.538;2022-12-20T06:40:43;5.38;;;2.47;;
7515;SDS011;3799;47.184;8.538;2022-12-20T06:43:10;5.75;;;2.90;;
7515;SDS011;3799;47.184;8.538;2022-12-20T06:45:37;5.72;;;2.72;;
7515;SDS011;3799;47.184;8.538;2022-12-20T06:48:07;4.68;;;2.70;;
7515;SDS011;3799;47.184;8.538;2022-12-20T06:50:36;5.28;;;3.08;;
7515;SDS011;3799;47.184;8.538;2022-12-20T06:53:03;5.57;;;1.98;;
7515;SDS011;3799;47.184;8.538;2022-12-20T06:55:30;4.50;;;2.40;;
7515;SDS011;3799;47.184;8.538;2022-12-20T06:57:57;4.20;;;1.77;;
7515;SDS011;3799;47.184;8.538;2022-12-20T07:00:24;4.18;;;1.98;;
7515;SDS011;3799;47.184;8.538;2022-12-20T07:02:52;4.22;;;1.80;;
7515;SDS011;3799;47.184;8.538;2022-12-20T07:05:20;4.78;;;1.80;;
7515;SDS011;3799;47.184;8.538;2022-12-20T07:07:46;3.13;;;1.40;;
7515;SDS011;3799;47.184;8.538;2022-12-20T07:10:13;4.70;;;1.65;;
7515;SDS011;3799;47.184;8.538;2022-12-20T07:12:41;2.63;;;1.38;;
7515;SDS011;3799;47.184;8.538;2022-12-20T07:15:13;3.17;;;1.45;;
7515;SDS011;3799;47.184;8.538;2022-12-20T07:17:40;5.32;;;1.70;;
7515;SDS011;3799;47.184;8.538;2022-12-20T07:20:07;4.30;;;1.58;;
7515;SDS011;3799;47.184;8.538;2022-12-20T07:22:39;2.85;;;1.38;;
7515;SDS011;3799;47.184;8.538;2022-12-20T07:25:07;4.22;;;1.30;;
7515;SDS011;3799;47.184;8.538;2022-12-20T07:27:37;2.67;;;0.90;;
7515;SDS011;3799;47.184;8.538;2022-12-20T07:30:05;2.92;;;1.10;;
7515;SDS011;3799;47.184;8.538;2022-12-20T07:32:32;2.85;;;0.80;;
7515;SDS011;3799;47.184;8.538;2022-12-20T07:34:59;2.08;;;0.63;;
7515;SDS011;3799;47.184;8.538;2022-12-20T07:37:29;2.38;;;0.85;;
7515;SDS011;3799;47.184;8.538;2022-12-20T07:39:56;2.22;;;0.95;;
7515;SDS011;3799;47.184;8.538;2022-12-20T07:42:22;1.83;;;0.70;;
7515;SDS011;3799;47.184;8.538;2022-12-20T07:44:59;2.30;;;0.80;;
7515;SDS011;3799;47.184;8.538;2022-12-20T07:47:27;3.22;;;1.42;;
7515;SDS011;3799;47.184;8.538;2022-12-20T07:49:54;3.53;;;1.85;;
7515;SDS011;3799;47.184;8.538;2022-12-20T07:52:21;4.15;;;1.23;;
7515;SDS011;3799;47.184;8.538;2022-12-20T07:54:54;6.20;;;1.05;;
7515;SDS011;3799;47.184;8.538;2022-12-20T07:57:28;4.40;;;1.20;;
7515;SDS011;3799;47.184;8.538;2022-12-20T08:00:02;2.83;;;1.02;;
7515;SDS011;3799;47.184;8.538;2022-12-20T08:02:35;2.67;;;1.33;;
7515;SDS011;3799;47.184;8.538;2022-12-20T08:05:06;3.33;;;1.55;;
7515;SDS011;3799;47.184;8.538;2022-12-20T08:07:34;3.25;;;1.20;;
7515;SDS011;3799;47.184;8.538;2022-12-20T08:10:03;4.30;;;1.13;;
7515;SDS011;3799;47.184;8.538;2022-12-20T08:12:32;3.13;;;1.48;;
7515;SDS011;3799;47.184;8.538;2022-12-20T08:14:59;4.47;;;2.05;;
7515;SDS011;3799;47.184;8.538;2022-12-20T08:17:26;3.72;;;1.45;;
7515;SDS011;3799;47.184;8.538;2022-12-20T08:19:53;6.28;;;1.73;;
7515;SDS011;3799;47.184;8.538;2022-12-20T08:22:22;4.40;;;1.65;;
7515;SDS011;3799;47.184;8.538;2022-12-20T08:24:49;3.92;;;1.80;;
7515;SDS011;3799;47.184;8.538;2022-12-20T08:27:16;3.90;;;1.38;;
7515;SDS011;3799;47.184;8.538;2022-12-20T08:29:43;3.10;;;1.50;;
7515;SDS011;3799;47.184;8.538;2022-12-20T08:32:09;5.28;;;0.90;;
7515;SDS011;3799;47.184;8.538;2022-12-20T08:34:38;3.78;;;0.93;;
7515;SDS011;3799;47.184;8.538;2022-12-20T08:37:05;4.55;;;0.77;;
7515;SDS011;3799;47.184;8.538;2022-12-20T08:39:40;2.10;;;0.90;;
7515;SDS011;3799;47.184;8.538;2022-12-20T08:42:06;2.30;;;0.75;;
7515;SDS011;3799;47.184;8.538;2022-12-20T08:44:33;4.63;;;1.50;;
7515;SDS011;3799;47.184;8.538;2022-12-20T08:47:00;3.10;;;1.25;;
7515;SDS011;3799;47.184;8.538;2022-12-20T08:49:27;4.38;;;1.35;;
7515;SDS011;3799;47.184;8.538;2022-12-20T08:51:54;4.38;;;1.48;;
7515;SDS011;3799;47.184;8.538;2022-12-20T08:54:23;2.85;;;0.98;;
7515;SDS011;3799;47.184;8.538;2022-12-20T08:56:50;3.25;;;1.15;;
7515;SDS011;3799;47.184;8.538;2022-12-20T08:59:17;3.55;;;1.20;;
7515;SDS011;3799;47.184;8.538;2022-12-20T09:01:44;3.08;;;1.23;;
7515;SDS011;3799;47.184;8.538;2022-12-20T09:04:11;3.00;;;1.30;;
7515;SDS011;3799;47.184;8.538;2022-12-20T09:06:40;2.92;;;1.27;;
7515;SDS011;3799;47.184;8.538;2022-12-20T09:09:08;3.67;;;1.60;;
7515;SDS011;3799;47.184;8.538;2022-12-20T09:11:35;3.78;;;1.33;;
7515;SDS011;3799;47.184;8.538;2022-12-20T09:14:02;3.50;;;1.23;;
7515;SDS011;3799;47.184;8.538;2022-12-20T09:16:29;3.53;;;1.67;;
7515;SDS011;3799;47.184;8.538;2022-12-20T09:19:01;3.58;;;1.73;;
7515;SDS011;3799;47.184;8.538;2022-12-20T09:21:31;3.53;;;1.38;;
7515;SDS011;3799;47.184;8.538;2022-12-20T09:23:59;4.10;;;1.67;;
7515;SDS011;3799;47.184;8.538;2022-12-20T09:26:26;2.75;;;1.35;;
7515;SDS011;3799;47.184;8.538;2022-12-20T09:28:53;2.97;;;1.50;;
7515;SDS011;3799;47.184;8.538;2022-12-20T09:31:21;2.70;;;1.20;;
7515;SDS011;3799;47.184;8.538;2022-12-20T09:33:56;2.42;;;1.27;;
7515;SDS011;3799;47.184;8.538;2022-12-20T09:36:34;3.05;;;1.30;;
7515;SDS011;3799;47.184;8.538;2022-12-20T09:39:02;4.05;;;1.38;;
7515;SDS011;3799;47.184;8.538;2022-12-20T09:41:36;4.57;;;1.40;;
7515;SDS011;3799;47.184;8.538;2022-12-20T09:46:54;3.50;;;1.23;;
7515;SDS011;3799;47.184;8.538;2022-12-20T09:49:32;3.05;;;1.45;;
7515;SDS011;3799;47.184;8.538;2022-12-20T10:00:01;3.17;;;1.70;;
7515;SDS011;3799;47.184;8.538;2022-12-20T10:02:29;3.70;;;1.58;;
7515;SDS011;3799;47.184;8.538;2022-12-20T10:05:21;3.22;;;1.17;;
7515;SDS011;3799;47.184;8.538;2022-12-20T10:07:56;4.25;;;1.88;;
7515;SDS011;3799;47.184;8.538;2022-12-20T10:16:53;2.72;;;0.70;;
7515;SDS011;3799;47.184;8.538;2022-12-20T10:22:27;3.25;;;1.35;;
7515;SDS011;3799;47.184;8.538;2022-12-20T10:25:13;2.38;;;1.00;;
7515;SDS011;3799;47.184;8.538;2022-12-20T10:27:47;1.95;;;0.93;;
7515;SDS011;3799;47.184;8.538;2022-12-20T10:30:20;2.38;;;1.10;;
7515;SDS011;3799;47.184;8.538;2022-12-20T10:32:50;3.20;;;1.10;;
7515;SDS011;3799;47.184;8.538;2022-12-20T10:35:24;3.45;;;0.93;;
7515;SDS011;3799;47.184;8.538;2022-12-20T10:37:58;1.65;;;0.60;;
7515;SDS011;3799;47.184;8.538;2022-12-20T10:40:39;2.63;;;0.82;;
7515;SDS011;3799;47.184;8.538;2022-12-20T10:43:38;2.35;;;0.70;;
7515;SDS011;3799;47.184;8.538;2022-12-20T10:46:13;3.10;;;1.02;;
7515;SDS011;3799;47.184;8.538;2022-12-20T10:48:42;3.13;;;0.80;;
7515;SDS011;3799;47.184;8.538;2022-12-20T10:51:12;3.15;;;1.65;;
7515;SDS011;3799;47.184;8.538;2022-12-20T10:56:30;3.47;;;1.52;;
7515;SDS011;3799;47.184;8.538;2022-12-20T11:01:48;4.82;;;2.05;;
7515;SDS011;3799;47.184;8.538;2022-12-20T11:04:33;5.20;;;2.15;;
7515;SDS011;3799;47.184;8.538;2022-12-20T11:07:03;6.90;;;2.85;;
7515;SDS011;3799;47.184;8.538;2022-12-20T11:09:58;6.13;;;2.53;;
7515;SDS011;3799;47.184;8.538;2022-12-20T11:12:28;5.82;;;2.88;;
7515;SDS011;3799;47.184;8.538;2022-12-20T11:15:18;5.30;;;2.45;;
7515;SDS011;3799;47.184;8.538;2022-12-20T11:18:03;5.43;;;3.03;;
7515;SDS011;3799;47.184;8.538;2022-12-20T11:20:52;7.25;;;2.95;;
7515;SDS011;3799;47.184;8.538;2022-12-20T11:23:38;5.18;;;2.65;;
7515;SDS011;3799;47.184;8.538;2022-12-20T11:26:14;7.13;;;3.00;;
7515;SDS011;3799;47.184;8.538;2022-12-20T11:28:58;5.85;;;2.53;;
7515;SDS011;3799;47.184;8.538;2022-12-20T11:37:22;7.32;;;2.83;;
7515;SDS011;3799;47.184;8.538;2022-12-20T11:45:58;4.78;;;2.47;;
7515;SDS011;3799;47.184;8.538;2022-12-20T11:52:12;5.43;;;2.10;;
7515;SDS011;3799;47.184;8.538;2022-12-20T11:55:01;6.50;;;2.60;;
7515;SDS011;3799;47.184;8.538;2022-12-20T12:00:40;4.53;;;2.20;;
7515;SDS011;3799;47.184;8.538;2022-12-20T12:03:13;4.95;;;2.10;;
7515;SDS011;3799;47.184;8.538;2022-12-20T12:05:56;3.83;;;1.98;;
7515;SDS011;3799;47.184;8.538;2022-12-20T12:08:47;6.57;;;2.40;;
7515;SDS011;3799;47.184;8.538;2022-12-20T12:11:20;5.82;;;2.25;;
7515;SDS011;3799;47.184;8.538;2022-12-20T12:14:17;3.22;;;2.03;;
7515;SDS011;3799;47.184;8.538;2022-12-20T12:17:01;3.25;;;1.67;;
7515;SDS011;3799;47.184;8.538;2022-12-20T12:19:36;4.65;;;2.42;;
7515;SDS011;3799;47.184;8.538;2022-12-20T12:22:10;4.40;;;1.58;;
7515;SDS011;3799;47.184;8.538;2022-12-20T12:24:44;4.95;;;2.20;;
7515;SDS011;3799;47.184;8.538;2022-12-20T12:27:33;3.33;;;1.90;;
7515;SDS011;3799;47.184;8.538;2022-12-20T12:30:00;4.95;;;2.25;;
7515;SDS011;3799;47.184;8.538;2022-12-20T12:32:32;6.25;;;2.63;;
7515;SDS011;3799;47.184;8.538;2022-12-20T12:38:23;4.07;;;2.00;;
7515;SDS011;3799;47.184;8.538;2022-12-20T12:43:56;4.93;;;2.30;;
7515;SDS011;3799;47.184;8.538;2022-12-20T12:46:45;4.47;;;2.50;;
7515;SDS011;3799;47.184;8.538;2022-12-20T12:49:19;5.93;;;2.72;;
7515;SDS011;3799;47.184;8.538;2022-12-20T12:51:52;5.05;;;2.80;;
7515;SDS011;3799;47.184;8.538;2022-12-20T12:54:23;4.97;;;2.55;;
7515;SDS011;3799;47.184;8.538;2022-12-20T12:57:00;6.15;;;2.90;;
7515;SDS011;3799;47.184;8.538;2022-12-20T13:04:30;5.00;;;2.88;;
7515;SDS011;3799;47.184;8.538;2022-12-20T13:10:00;6.22;;;3.20;;
7515;SDS011;3799;47.184;8.538;2022-12-20T13:20:20;4.68;;;2.53;;
7515;SDS011;3799;47.184;8.538;2022-12-20T13:33:43;6.80;;;2.30;;
7515;SDS011;3799;47.184;8.538;2022-12-20T13:41:11;5.32;;;3.45;;
7515;SDS011;3799;47.184;8.538;2022-12-20T13:43:45;6.18;;;3.63;;
7515;SDS011;3799;47.184;8.538;2022-12-20T13:46:18;6.28;;;3.22;;
7515;SDS011;3799;47.184;8.538;2022-12-20T13:49:09;7.15;;;3.08;;
7515;SDS011;3799;47.184;8.538;2022-12-20T13:51:45;8.18;;;2.92;;
7515;SDS011;3799;47.184;8.538;2022-12-20T13:54:18;5.85;;;3.20;;
7515;SDS011;3799;47.184;8.538;2022-12-20T13:56:52;5.50;;;2.63;;
7515;SDS011;3799;47.184;8.538;2022-12-20T13:59:24;7.25;;;3.25;;
7515;SDS011;3799;47.184;8.538;2022-12-20T14:01:54;6.13;;;2.85;;
7515;SDS011;3799;47.184;8.538;2022-12-20T14:04:25;6.13;;;3.13;;
7515;SDS011;3799;47.184;8.538;2022-12-20T14:07:03;5.13;;;2.72;;
7515;SDS011;3799;47.184;8.538;2022-12-20T14:09:32;6.28;;;3.33;;
7515;SDS011;3799;47.184;8.538;2022-12-20T14:14:38;7.03;;;3.05;;
7515;SDS011;3799;47.184;8.538;2022-12-20T14:17:16;5.25;;;2.97;;
7515;SDS011;3799;47.184;8.538;2022-12-20T14:28:52;4.53;;;2.63;;
7515;SDS011;3799;47.184;8.538;2022-12-20T14:31:36;9.45;;;3.00;;
7515;SDS011;3799;47.184;8.538;2022-12-20T14:36:36;4.50;;;2.42;;
7515;SDS011;3799;47.184;8.538;2022-12-20T14:39:22;5.53;;;2.33;;
7515;SDS011;3799;47.184;8.538;2022-12-20T14:41:58;4.80;;;2.55;;
7515;SDS011;3799;47.184;8.538;2022-12-20T14:44:27;4.97;;;2.63;;
7515;SDS011;3799;47.184;8.538;2022-12-20T14:46:57;6.35;;;2.55;;
7515;SDS011;3799;47.184;8.538;2022-12-20T14:49:47;6.40;;;3.13;;
7515;SDS011;3799;47.184;8.538;2022-12-20T14:52:22;4.57;;;2.70;;
7515;SDS011;3799;47.184;8.538;2022-12-20T15:00:19;4.35;;;2.55;;
7515;SDS011;3799;47.184;8.538;2022-12-20T15:13:17;4.20;;;2.30;;
7515;SDS011;3799;47.184;8.538;2022-12-20T15:15:46;4.80;;;1.92;;
7515;SDS011;3799;47.184;8.538;2022-12-20T15:18:14;5.40;;;2.33;;
7515;SDS011;3799;47.184;8.538;2022-12-20T15:20:43;4.07;;;2.22;;
7515;SDS011;3799;47.184;8.538;2022-12-20T15:23:18;5.15;;;2.08;;
7515;SDS011;3799;47.184;8.538;2022-12-20T15:25:47;2.78;;;1.70;;
7515;SDS011;3799;47.184;8.538;2022-12-20T15:28:16;5.03;;;1.95;;
7515;SDS011;3799;47.184;8.538;2022-12-20T15:30:46;4.28;;;2.10;;
7515;SDS011;3799;47.184;8.538;2022-12-20T15:33:15;4.47;;;1.98;;
7515;SDS011;3799;47.184;8.538;2022-12-20T15:35:54;2.55;;;0.90;;
7515;SDS011;3799;47.184;8.538;2022-12-20T15:38:23;3.53;;;0.93;;
7515;SDS011;3799;47.184;8.538;2022-12-20T15:41:22;3.38;;;1.27;;
7515;SDS011;3799;47.184;8.538;2022-12-20T15:43:57;2.53;;;1.17;;
7515;SDS011;3799;47.184;8.538;2022-12-20T15:46:32;2.30;;;0.93;;
7515;SDS011;3799;47.184;8.538;2022-12-20T15:48:59;2.15;;;0.80;;
7515;SDS011;3799;47.184;8.538;2022-12-20T15:53:56;1.92;;;0.75;;
7515;SDS011;3799;47.184;8.538;2022-12-20T15:56:25;2.53;;;0.88;;
7515;SDS011;3799;47.184;8.538;2022-12-20T15:58:53;3.15;;;0.93;;
7515;SDS011;3799;47.184;8.538;2022-12-20T16:01:21;2.83;;;0.85;;
7515;SDS011;3799;47.184;8.538;2022-12-20T16:03:52;1.88;;;0.77;;
7515;SDS011;3799;47.184;8.538;2022-12-20T16:06:20;3.03;;;0.90;;
7515;SDS011;3799;47.184;8.538;2022-12-20T16:08:48;4.18;;;0.90;;
7515;SDS011;3799;47.184;8.538;2022-12-20T16:11:22;1.83;;;0.70;;
7515;SDS011;3799;47.184;8.538;2022-12-20T16:13:53;2.58;;;1.05;;
7515;SDS011;3799;47.184;8.538;2022-12-20T16:16:21;3.45;;;1.10;;
7515;SDS011;3799;47.184;8.538;2022-12-20T16:18:50;2.47;;;0.73;;
7515;SDS011;3799;47.184;8.538;2022-12-20T16:21:20;2.38;;;0.75;;
7515;SDS011;3799;47.184;8.538;2022-12-20T16:23:52;3.78;;;0.80;;
7515;SDS011;3799;47.184;8.538;2022-12-20T16:26:20;4.03;;;1.55;;
7515;SDS011;3799;47.184;8.538;2022-12-20T16:28:49;4.22;;;2.28;;
7515;SDS011;3799;47.184;8.538;2022-12-20T16:31:24;5.38;;;1.73;;
7515;SDS011;3799;47.184;8.538;2022-12-20T16:34:00;5.68;;;1.30;;
7515;SDS011;3799;47.184;8.538;2022-12-20T16:36:29;4.35;;;1.58;;
7515;SDS011;3799;47.184;8.538;2022-12-20T16:38:57;3.30;;;1.30;;
7515;SDS011;3799;47.184;8.538;2022-12-20T16:41:27;3.00;;;1.58;;
7515;SDS011;3799;47.184;8.538;2022-12-20T16:43:57;2.88;;;1.42;;
7515;SDS011;3799;47.184;8.538;2022-12-20T16:46:27;1.85;;;0.68;;
7515;SDS011;3799;47.184;8.538;2022-12-20T16:48:55;1.92;;;0.43;;
7515;SDS011;3799;47.184;8.538;2022-12-20T16:51:28;4.38;;;1.42;;
7515;SDS011;3799;47.184;8.538;2022-12-20T16:54:00;2.97;;;1.40;;
7515;SDS011;3799;47.184;8.538;2022-12-20T16:56:47;4.32;;;1.50;;
7515;SDS011;3799;47.184;8.538;2022-12-20T16:59:21;4.10;;;1.83;;
7515;SDS011;3799;47.184;8.538;2022-12-20T17:01:53;4.55;;;2.20;;
7515;SDS011;3799;47.184;8.538;2022-12-20T17:04:35;4.72;;;1.95;;
7515;SDS011;3799;47.184;8.538;2022-12-20T17:07:03;3.78;;;1.90;;
7515;SDS011;3799;47.184;8.538;2022-12-20T17:09:33;3.72;;;1.58;;
7515;SDS011;3799;47.184;8.538;2022-12-20T17:12:18;3.70;;;1.60;;
7515;SDS011;3799;47.184;8.538;2022-12-20T17:14:46;3.00;;;1.40;;
7515;SDS011;3799;47.184;8.538;2022-12-20T17:17:14;3.40;;;1.50;;
7515;SDS011;3799;47.184;8.538;2022-12-20T17:19:42;2.67;;;1.15;;
7515;SDS011;3799;47.184;8.538;2022-12-20T17:22:10;4.03;;;1.65;;
7515;SDS011;3799;47.184;8.538;2022-12-20T17:24:56;4.45;;;1.38;;
7515;SDS011;3799;47.184;8.538;2022-12-20T17:27:23;3.17;;;1.27;;
7515;SDS011;3799;47.184;8.538;2022-12-20T17:29:50;3.13;;;1.20;;
7515;SDS011;3799;47.184;8.538;2022-12-20T17:32:18;3.92;;;1.40;;
7515;SDS011;3799;47.184;8.538;2022-12-20T17:34:47;4.10;;;1.20;;
7515;SDS011;3799;47.184;8.538;2022-12-20T17:37:15;3.70;;;1.00;;
7515;SDS011;3799;47.184;8.538;2022-12-20T17:39:43;4.05;;;1.40;;
7515;SDS011;3799;47.184;8.538;2022-12-20T17:42:14;3.97;;;1.40;;
7515;SDS011;3799;47.184;8.538;2022-12-20T17:44:42;2.45;;;1.17;;
7515;SDS011;3799;47.184;8.538;2022-12-20T17:47:11;4.80;;;1.48;;
7515;SDS011;3799;47.184;8.538;2022-12-20T17:49:38;4.53;;;1.33;;
7515;SDS011;3799;47.184;8.538;2022-12-20T17:52:12;3.30;;;0.88;;